Startpagina
METAR-TAF:

METAR-TAF

Vliegvelden :

Flughafen Wien-Schwechat

Wenen, Oostenrijk

breedte: 48-07N, lengte: 016-34E, hoogte: 183 m

Actueel weer

Dit bericht is 37 minuten geleden gemaakt, om 23:50 UTC
Wind 15 kt uit het noordwesten
Temperatuur 12°C
Vochtigheid 88%
Druk 1018 hPa
Zicht 10 km of meer
Gebroken wolken op 3600 ft

METAR: LOWW 312350Z 31015KT 9999 BKN036 12/10 Q1018 NOSIG

Tijdstip: 02:27 (00:27 UTC)

Verwachting

Dit bericht is 1 uur en het 12 minuten geleden gemaakt, om 23:15 UTC
Verwachting geldig van 01 om 00 UTC tot 02 om 06 UTC
Wind 10 kt uit het noordwesten
Zicht 10 km of meer
Gebroken wolken op 2500 ft
Wijzigt naar
van 01 om 08 UTC tot 01 om 10 UTC
Zicht 10 km of meer
geen wolken onder 1500 m en geen cumulonimbus

TAF: LOWW 312315Z 0100/0206 32010KT 9999 BKN025 TX21/0114Z TN10/0206Z BECMG 0108/0110 CAVOK

Waarnemingen en weersverwachtingen van meer dan 4000 vliegvelden (METAR en TAF).

De beschikbare stations zijn de gele en rode punten op de kaart.

Ga met uw muis naar het station om de naam te zien.

Klik dan om waarnemingen en weersverwachtingen te zien.

kaart wijzigen: klik op de groene knoppen met een zwart kruis om in te zoomen, op de groene knop met een streepje om uit te zoomen of op de groene pijlen voor aangrenzende kaarten.


METAR-TAF: